sensor_id;sensor_type;location;lat;lon;timestamp;pressure;altitude;pressure_sealevel;temperature;humidity
61478;BME280;47345;52.334;10.392;2023-04-24T04:45:28;99358.48;;;10.58;78.20
61478;BME280;47345;52.334;10.392;2023-04-24T04:47:58;99358.99;;;10.58;78.30
61478;BME280;47345;52.334;10.392;2023-04-24T04:50:29;99359.45;;;10.60;78.38
61478;BME280;47345;52.334;10.392;2023-04-24T04:53:00;99358.47;;;10.63;78.59
61478;BME280;47345;52.334;10.392;2023-04-24T04:55:31;99363.78;;;10.66;78.56
61478;BME280;47345;52.334;10.392;2023-04-24T04:58:01;99366.63;;;10.69;78.51
61478;BME280;47345;52.334;10.392;2023-04-24T05:00:32;99365.59;;;10.71;78.51
61478;BME280;47345;52.334;10.392;2023-04-24T05:03:05;99372.56;;;10.75;78.54
61478;BME280;47345;52.334;10.392;2023-04-24T05:05:49;99370.27;;;10.78;78.51
61478;BME280;47345;52.334;10.392;2023-04-24T05:08:20;99370.98;;;10.83;78.52
61478;BME280;47345;52.334;10.392;2023-04-24T05:10:53;99375.81;;;10.87;78.54
61478;BME280;47345;52.334;10.392;2023-04-24T05:13:24;99375.61;;;10.91;78.57
61478;BME280;47345;52.334;10.392;2023-04-24T05:16:07;99381.21;;;10.97;78.63
61478;BME280;47345;52.334;10.392;2023-04-24T05:18:38;99380.70;;;11.02;78.63
61478;BME280;47345;52.334;10.392;2023-04-24T05:21:09;99385.79;;;11.07;78.65
61478;BME280;47345;52.334;10.392;2023-04-24T05:23:40;99380.23;;;11.11;78.74
61478;BME280;47345;52.334;10.392;2023-04-24T05:26:10;99380.48;;;11.17;78.75
61478;BME280;47345;52.334;10.392;2023-04-24T05:28:41;99380.05;;;11.20;78.70
61478;BME280;47345;52.334;10.392;2023-04-24T05:31:12;99381.84;;;11.25;78.73
61478;BME280;47345;52.334;10.392;2023-04-24T05:33:43;99380.83;;;11.30;78.80
61478;BME280;47345;52.334;10.392;2023-04-24T05:36:13;99384.02;;;11.33;78.72
61478;BME280;47345;52.334;10.392;2023-04-24T05:38:44;99379.45;;;11.38;78.79
61478;BME280;47345;52.334;10.392;2023-04-24T05:41:14;99380.92;;;11.44;78.76
61478;BME280;47345;52.334;10.392;2023-04-24T05:43:45;99381.61;;;11.49;78.62
61478;BME280;47345;52.334;10.392;2023-04-24T05:46:16;99384.85;;;11.52;78.54
61478;BME280;47345;52.334;10.392;2023-04-24T05:48:47;99385.98;;;11.58;78.58
61478;BME280;47345;52.334;10.392;2023-04-24T05:51:18;99387.77;;;11.63;78.53
61478;BME280;47345;52.334;10.392;2023-04-24T05:53:48;99386.70;;;11.68;78.55
61478;BME280;47345;52.334;10.392;2023-04-24T05:56:19;99385.39;;;11.74;78.47
61478;BME280;47345;52.334;10.392;2023-04-24T05:58:50;99389.89;;;11.78;78.48
61478;BME280;47345;52.334;10.392;2023-04-24T06:01:21;99389.65;;;11.84;78.49
61478;BME280;47345;52.334;10.392;2023-04-24T06:03:53;99386.23;;;11.90;78.46
61478;BME280;47345;52.334;10.392;2023-04-24T06:06:25;99389.04;;;11.93;78.40
61478;BME280;47345;52.334;10.392;2023-04-24T06:08:57;99391.27;;;11.99;78.27
61478;BME280;47345;52.334;10.392;2023-04-24T06:11:29;99389.39;;;12.03;78.11
61478;BME280;47345;52.334;10.392;2023-04-24T06:14:01;99390.43;;;12.07;77.87
61478;BME280;47345;52.334;10.392;2023-04-24T06:16:34;99389.06;;;12.11;77.59
61478;BME280;47345;52.334;10.392;2023-04-24T06:19:05;99387.73;;;12.17;77.45
61478;BME280;47345;52.334;10.392;2023-04-24T06:21:37;99389.89;;;12.22;77.41
61478;BME280;47345;52.334;10.392;2023-04-24T06:24:09;99387.19;;;12.29;77.41
61478;BME280;47345;52.334;10.392;2023-04-24T06:26:40;99390.52;;;12.36;77.53
61478;BME280;47345;52.334;10.392;2023-04-24T06:29:12;99387.49;;;12.43;77.57
61478;BME280;47345;52.334;10.392;2023-04-24T06:31:44;99396.05;;;12.51;77.81
61478;BME280;47345;52.334;10.392;2023-04-24T06:34:17;99394.73;;;12.59;77.62
61478;BME280;47345;52.334;10.392;2023-04-24T06:36:49;99397.38;;;12.68;77.34
61478;BME280;47345;52.334;10.392;2023-04-24T06:39:20;99400.36;;;12.75;76.92
61478;BME280;47345;52.334;10.392;2023-04-24T06:41:52;99403.09;;;12.83;76.55
61478;BME280;47345;52.334;10.392;2023-04-24T06:44:24;99402.92;;;12.87;76.15
61478;BME280;47345;52.334;10.392;2023-04-24T06:46:55;99402.39;;;12.92;75.99
61478;BME280;47345;52.334;10.392;2023-04-24T06:49:27;99398.99;;;12.96;76.05
61478;BME280;47345;52.334;10.392;2023-04-24T06:51:58;99394.64;;;13.00;75.75
61478;BME280;47345;52.334;10.392;2023-04-24T06:54:30;99397.52;;;13.03;75.69
61478;BME280;47345;52.334;10.392;2023-04-24T06:57:01;99391.54;;;13.08;75.73
61478;BME280;47345;52.334;10.392;2023-04-24T06:59:34;99399.12;;;13.12;75.88
61478;BME280;47345;52.334;10.392;2023-04-24T07:02:05;99397.13;;;13.17;75.98
61478;BME280;47345;52.334;10.392;2023-04-24T07:04:37;99396.02;;;13.20;76.12
61478;BME280;47345;52.334;10.392;2023-04-24T07:07:07;99395.58;;;13.25;76.02
61478;BME280;47345;52.334;10.392;2023-04-24T07:09:42;99392.02;;;13.32;75.93
61478;BME280;47345;52.334;10.392;2023-04-24T07:12:14;99389.30;;;13.40;76.04
61478;BME280;47345;52.334;10.392;2023-04-24T07:14:46;99388.20;;;13.49;75.68
61478;BME280;47345;52.334;10.392;2023-04-24T07:17:16;99399.81;;;13.57;75.16
61478;BME280;47345;52.334;10.392;2023-04-24T07:19:47;99421.20;;;13.57;73.40
61478;BME280;47345;52.334;10.392;2023-04-24T07:22:18;99428.84;;;13.48;70.73
61478;BME280;47345;52.334;10.392;2023-04-24T07:24:49;99424.20;;;13.32;69.48
61478;BME280;47345;52.334;10.392;2023-04-24T07:27:20;99423.95;;;13.18;69.36
61478;BME280;47345;52.334;10.392;2023-04-24T07:29:50;99426.55;;;13.06;69.29
61478;BME280;47345;52.334;10.392;2023-04-24T07:32:21;99434.23;;;12.97;69.34
61478;BME280;47345;52.334;10.392;2023-04-24T07:34:51;99433.92;;;12.90;69.37
61478;BME280;47345;52.334;10.392;2023-04-24T07:37:22;99435.16;;;12.84;70.03
61478;BME280;47345;52.334;10.392;2023-04-24T07:39:53;99433.62;;;12.80;69.92
61478;BME280;47345;52.334;10.392;2023-04-24T07:42:24;99438.38;;;12.77;70.33
61478;BME280;47345;52.334;10.392;2023-04-24T07:44:54;99440.54;;;12.76;70.64
61478;BME280;47345;52.334;10.392;2023-04-24T07:47:25;99446.14;;;12.76;70.63
61478;BME280;47345;52.334;10.392;2023-04-24T07:49:56;99447.36;;;12.73;70.45
61478;BME280;47345;52.334;10.392;2023-04-24T07:52:26;99449.98;;;12.72;70.76
61478;BME280;47345;52.334;10.392;2023-04-24T07:54:57;99449.55;;;12.73;71.17
61478;BME280;47345;52.334;10.392;2023-04-24T07:57:29;99453.05;;;12.76;71.18
61478;BME280;47345;52.334;10.392;2023-04-24T08:00:00;99455.70;;;12.81;71.49
61478;BME280;47345;52.334;10.392;2023-04-24T08:02:30;99460.27;;;12.89;71.31
61478;BME280;47345;52.334;10.392;2023-04-24T08:05:01;99468.04;;;12.96;71.11
61478;BME280;47345;52.334;10.392;2023-04-24T08:07:33;99467.70;;;13.05;71.07
61478;BME280;47345;52.334;10.392;2023-04-24T08:10:05;99470.64;;;13.15;70.61
61478;BME280;47345;52.334;10.392;2023-04-24T08:12:36;99469.31;;;13.24;70.46
61478;BME280;47345;52.334;10.392;2023-04-24T08:15:09;99475.34;;;13.33;70.32
61478;BME280;47345;52.334;10.392;2023-04-24T08:17:39;99473.27;;;13.42;69.97
61478;BME280;47345;52.334;10.392;2023-04-24T08:20:10;99474.27;;;13.53;70.21
61478;BME280;47345;52.334;10.392;2023-04-24T08:22:43;99472.98;;;13.64;70.14
61478;BME280;47345;52.334;10.392;2023-04-24T08:25:16;99470.54;;;13.73;69.19
61478;BME280;47345;52.334;10.392;2023-04-24T08:27:48;99471.08;;;13.84;68.78
61478;BME280;47345;52.334;10.392;2023-04-24T08:30:18;99472.10;;;13.94;68.87
61478;BME280;47345;52.334;10.392;2023-04-24T08:32:49;99467.73;;;14.04;68.50
61478;BME280;47345;52.334;10.392;2023-04-24T08:35:20;99472.11;;;14.13;67.88
61478;BME280;47345;52.334;10.392;2023-04-24T08:37:51;99471.86;;;14.23;67.99
61478;BME280;47345;52.334;10.392;2023-04-24T08:40:27;99471.35;;;14.30;67.29
61478;BME280;47345;52.334;10.392;2023-04-24T08:43:00;99471.63;;;14.37;65.94
61478;BME280;47345;52.334;10.392;2023-04-24T08:45:31;99475.30;;;14.43;64.62
61478;BME280;47345;52.334;10.392;2023-04-24T08:48:03;99473.90;;;14.47;64.19
61478;BME280;47345;52.334;10.392;2023-04-24T08:50:44;99481.17;;;14.57;63.94
61478;BME280;47345;52.334;10.392;2023-04-24T08:53:15;99480.39;;;14.69;62.99
61478;BME280;47345;52.334;10.392;2023-04-24T08:55:48;99483.17;;;14.80;61.90
61478;BME280;47345;52.334;10.392;2023-04-24T08:58:21;99484.14;;;14.88;60.63
61478;BME280;47345;52.334;10.392;2023-04-24T09:00:51;99488.15;;;14.96;60.52
61478;BME280;47345;52.334;10.392;2023-04-24T09:03:22;99485.06;;;15.06;60.63
61478;BME280;47345;52.334;10.392;2023-04-24T09:05:55;99487.63;;;15.13;59.85
61478;BME280;47345;52.334;10.392;2023-04-24T09:08:26;99485.45;;;15.16;59.52
61478;BME280;47345;52.334;10.392;2023-04-24T09:10:58;99484.95;;;15.16;57.94
61478;BME280;47345;52.334;10.392;2023-04-24T09:13:31;99480.24;;;15.12;58.01
61478;BME280;47345;52.334;10.392;2023-04-24T09:16:02;99479.39;;;15.06;58.21
61478;BME280;47345;52.334;10.392;2023-04-24T09:18:33;99480.63;;;15.00;57.94
61478;BME280;47345;52.334;10.392;2023-04-24T09:21:06;99481.40;;;14.91;56.61
61478;BME280;47345;52.334;10.392;2023-04-24T09:23:37;99475.48;;;14.83;57.16
61478;BME280;47345;52.334;10.392;2023-04-24T09:26:10;99481.08;;;14.78;57.83
61478;BME280;47345;52.334;10.392;2023-04-24T09:28:43;99486.56;;;14.76;57.18
61478;BME280;47345;52.334;10.392;2023-04-24T09:31:18;99486.42;;;14.71;56.57
61478;BME280;47345;52.334;10.392;2023-04-24T09:33:57;99492.80;;;14.70;56.64
61478;BME280;47345;52.334;10.392;2023-04-24T09:36:32;99488.39;;;14.69;57.04
61478;BME280;47345;52.334;10.392;2023-04-24T09:39:04;99489.28;;;14.71;58.05
61478;BME280;47345;52.334;10.392;2023-04-24T09:41:35;99488.86;;;14.75;59.19
61478;BME280;47345;52.334;10.392;2023-04-24T09:44:14;99484.24;;;14.84;59.16
61478;BME280;47345;52.334;10.392;2023-04-24T09:46:49;99480.72;;;14.97;58.95
61478;BME280;47345;52.334;10.392;2023-04-24T09:49:24;99485.10;;;15.04;57.54
61478;BME280;47345;52.334;10.392;2023-04-24T09:52:03;99487.23;;;15.06;56.67
61478;BME280;47345;52.334;10.392;2023-04-24T09:54:34;99490.72;;;15.04;55.80
61478;BME280;47345;52.334;10.392;2023-04-24T09:57:08;99493.16;;;14.97;55.47
61478;BME280;47345;52.334;10.392;2023-04-24T09:59:43;99496.85;;;14.94;55.44
61478;BME280;47345;52.334;10.392;2023-04-24T10:02:21;99489.64;;;14.98;56.29
61478;BME280;47345;52.334;10.392;2023-04-24T10:04:57;99486.38;;;15.06;57.24
61478;BME280;47345;52.334;10.392;2023-04-24T10:07:29;99490.83;;;15.14;56.66
61478;BME280;47345;52.334;10.392;2023-04-24T10:10:03;99489.88;;;15.19;55.67
61478;BME280;47345;52.334;10.392;2023-04-24T10:12:34;99496.02;;;15.17;54.28
61478;BME280;47345;52.334;10.392;2023-04-24T10:15:05;99494.95;;;15.11;54.70
61478;BME280;47345;52.334;10.392;2023-04-24T10:17:36;99499.20;;;15.05;54.04
61478;BME280;47345;52.334;10.392;2023-04-24T10:20:09;99496.27;;;15.02;53.54
61478;BME280;47345;52.334;10.392;2023-04-24T10:22:41;99492.06;;;15.05;54.08
61478;BME280;47345;52.334;10.392;2023-04-24T10:25:11;99492.27;;;15.15;55.11
61478;BME280;47345;52.334;10.392;2023-04-24T10:27:42;99494.48;;;15.26;54.72
61478;BME280;47345;52.334;10.392;2023-04-24T10:30:14;99489.75;;;15.30;54.03
61478;BME280;47345;52.334;10.392;2023-04-24T10:32:45;99498.30;;;15.32;53.60
61478;BME280;47345;52.334;10.392;2023-04-24T10:35:17;99498.14;;;15.35;53.15
61478;BME280;47345;52.334;10.392;2023-04-24T10:37:54;99498.25;;;15.39;52.53
61478;BME280;47345;52.334;10.392;2023-04-24T10:40:29;99510.98;;;15.40;51.74
61478;BME280;47345;52.334;10.392;2023-04-24T10:43:01;99508.23;;;15.39;52.04
61478;BME280;47345;52.334;10.392;2023-04-24T10:45:32;99514.06;;;15.40;52.53
61478;BME280;47345;52.334;10.392;2023-04-24T10:48:04;99515.45;;;15.40;52.03
61478;BME280;47345;52.334;10.392;2023-04-24T10:50:47;99516.44;;;15.40;51.93
61478;BME280;47345;52.334;10.392;2023-04-24T10:53:20;99522.07;;;15.40;51.67
61478;BME280;47345;52.334;10.392;2023-04-24T10:55:56;99520.45;;;15.39;52.22
61478;BME280;47345;52.334;10.392;2023-04-24T10:58:38;99520.58;;;15.41;52.67
61478;BME280;47345;52.334;10.392;2023-04-24T11:01:11;99518.11;;;15.44;53.15
61478;BME280;47345;52.334;10.392;2023-04-24T11:03:57;99518.52;;;15.50;53.09
61478;BME280;47345;52.334;10.392;2023-04-24T11:06:32;99516.11;;;15.55;51.90
61478;BME280;47345;52.334;10.392;2023-04-24T11:09:05;99517.33;;;15.56;51.42
61478;BME280;47345;52.334;10.392;2023-04-24T11:11:38;99514.18;;;15.57;50.98
61478;BME280;47345;52.334;10.392;2023-04-24T11:14:10;99514.75;;;15.60;51.68
61478;BME280;47345;52.334;10.392;2023-04-24T11:16:52;99512.58;;;15.67;52.25
61478;BME280;47345;52.334;10.392;2023-04-24T11:19:25;99512.27;;;15.76;51.75
61478;BME280;47345;52.334;10.392;2023-04-24T11:22:00;99518.23;;;15.84;51.26
61478;BME280;47345;52.334;10.392;2023-04-24T11:24:38;99518.98;;;15.87;50.63
61478;BME280;47345;52.334;10.392;2023-04-24T11:27:14;99512.98;;;15.89;50.51
61478;BME280;47345;52.334;10.392;2023-04-24T11:29:47;99508.67;;;15.92;50.76
61478;BME280;47345;52.334;10.392;2023-04-24T11:32:30;99506.64;;;15.96;50.85
61478;BME280;47345;52.334;10.392;2023-04-24T11:35:02;99508.14;;;16.00;50.60
61478;BME280;47345;52.334;10.392;2023-04-24T11:37:37;99505.77;;;16.03;50.26
61478;BME280;47345;52.334;10.392;2023-04-24T11:40:10;99505.34;;;16.09;50.62
61478;BME280;47345;52.334;10.392;2023-04-24T11:42:42;99509.80;;;16.12;50.59
61478;BME280;47345;52.334;10.392;2023-04-24T11:45:15;99511.07;;;16.08;50.09
61478;BME280;47345;52.334;10.392;2023-04-24T11:47:46;99514.70;;;16.02;50.20
61478;BME280;47345;52.334;10.392;2023-04-24T11:50:18;99518.23;;;15.97;50.46
61478;BME280;47345;52.334;10.392;2023-04-24T11:52:50;99515.18;;;15.89;50.05
61478;BME280;47345;52.334;10.392;2023-04-24T11:55:30;99522.96;;;15.78;50.55
61478;BME280;47345;52.334;10.392;2023-04-24T11:58:00;99516.50;;;15.72;51.14
61478;BME280;47345;52.334;10.392;2023-04-24T12:00:34;99522.23;;;15.69;50.93
61478;BME280;47345;52.334;10.392;2023-04-24T12:03:09;99519.52;;;15.68;51.41
61478;BME280;47345;52.334;10.392;2023-04-24T12:05:41;99519.55;;;15.64;51.33
61478;BME280;47345;52.334;10.392;2023-04-24T12:08:28;99516.18;;;15.59;51.59
61478;BME280;47345;52.334;10.392;2023-04-24T12:10:59;99509.63;;;15.60;51.88
61478;BME280;47345;52.334;10.392;2023-04-24T12:13:30;99512.61;;;15.61;51.99
61478;BME280;47345;52.334;10.392;2023-04-24T12:16:03;99513.09;;;15.59;51.92
61478;BME280;47345;52.334;10.392;2023-04-24T12:18:34;99511.53;;;15.54;52.31
61478;BME280;47345;52.334;10.392;2023-04-24T12:21:22;99513.73;;;15.53;52.61
61478;BME280;47345;52.334;10.392;2023-04-24T12:23:56;99511.41;;;15.54;51.65
61478;BME280;47345;52.334;10.392;2023-04-24T12:26:28;99514.14;;;15.57;51.70
61478;BME280;47345;52.334;10.392;2023-04-24T12:29:02;99517.06;;;15.60;51.50
61478;BME280;47345;52.334;10.392;2023-04-24T12:31:33;99528.08;;;15.58;53.35
61478;BME280;47345;52.334;10.392;2023-04-24T12:34:04;99535.28;;;15.53;57.86
61478;BME280;47345;52.334;10.392;2023-04-24T12:36:47;99533.43;;;15.45;59.06
61478;BME280;47345;52.334;10.392;2023-04-24T12:39:18;99534.63;;;15.37;59.01
61478;BME280;47345;52.334;10.392;2023-04-24T12:41:58;99533.48;;;15.30;58.11
61478;BME280;47345;52.334;10.392;2023-04-24T12:44:34;99528.17;;;15.25;56.88
61478;BME280;47345;52.334;10.392;2023-04-24T12:47:06;99527.71;;;15.29;57.46
61478;BME280;47345;52.334;10.392;2023-04-24T12:49:38;99528.21;;;15.31;56.27
61478;BME280;47345;52.334;10.392;2023-04-24T12:52:09;99531.48;;;15.33;55.08
61478;BME280;47345;52.334;10.392;2023-04-24T12:54:40;99538.89;;;15.30;54.75
61478;BME280;47345;52.334;10.392;2023-04-24T12:57:10;99539.09;;;15.25;54.43
61478;BME280;47345;52.334;10.392;2023-04-24T12:59:40;99545.62;;;15.20;53.96
61478;BME280;47345;52.334;10.392;2023-04-24T13:02:11;99551.34;;;15.17;53.88
61478;BME280;47345;52.334;10.392;2023-04-24T13:04:43;99554.96;;;15.16;54.63
61478;BME280;47345;52.334;10.392;2023-04-24T13:07:14;99560.76;;;15.16;54.78
61478;BME280;47345;52.334;10.392;2023-04-24T13:09:45;99573.73;;;15.14;55.61
61478;BME280;47345;52.334;10.392;2023-04-24T13:12:16;99585.95;;;15.12;56.06
61478;BME280;47345;52.334;10.392;2023-04-24T13:14:48;99581.04;;;15.10;56.63
61478;BME280;47345;52.334;10.392;2023-04-24T13:17:18;99577.61;;;15.08;56.87
61478;BME280;47345;52.334;10.392;2023-04-24T13:19:51;99584.54;;;15.06;56.00
61478;BME280;47345;52.334;10.392;2023-04-24T13:22:22;99585.13;;;15.04;56.53
61478;BME280;47345;52.334;10.392;2023-04-24T13:24:54;99582.20;;;15.01;56.37
61478;BME280;47345;52.334;10.392;2023-04-24T13:27:25;99584.01;;;15.01;56.36
61478;BME280;47345;52.334;10.392;2023-04-24T13:29:56;99582.43;;;14.96;56.18
61478;BME280;47345;52.334;10.392;2023-04-24T13:32:26;99578.48;;;14.91;56.74
61478;BME280;47345;52.334;10.392;2023-04-24T13:34:58;99577.37;;;14.89;56.99
61478;BME280;47345;52.334;10.392;2023-04-24T13:37:28;99578.02;;;14.86;56.48
61478;BME280;47345;52.334;10.392;2023-04-24T13:39:59;99579.05;;;14.84;56.78
61478;BME280;47345;52.334;10.392;2023-04-24T13:42:30;99585.63;;;14.81;56.29
61478;BME280;47345;52.334;10.392;2023-04-24T13:45:00;99593.45;;;14.80;55.97
61478;BME280;47345;52.334;10.392;2023-04-24T13:47:45;99597.96;;;14.80;55.20
61478;BME280;47345;52.334;10.392;2023-04-24T13:50:19;99602.85;;;14.79;55.60
61478;BME280;47345;52.334;10.392;2023-04-24T13:52:49;99605.48;;;14.76;55.38
61478;BME280;47345;52.334;10.392;2023-04-24T13:55:20;99607.66;;;14.69;54.92
61478;BME280;47345;52.334;10.392;2023-04-24T13:57:50;99613.10;;;14.56;55.00
61478;BME280;47345;52.334;10.392;2023-04-24T14:00:25;99618.52;;;14.43;55.39
61478;BME280;47345;52.334;10.392;2023-04-24T14:02:55;99619.38;;;14.28;55.32
61478;BME280;47345;52.334;10.392;2023-04-24T14:05:26;99627.98;;;14.13;55.97
61478;BME280;47345;52.334;10.392;2023-04-24T14:07:57;99634.84;;;13.99;56.43
61478;BME280;47345;52.334;10.392;2023-04-24T14:10:27;99631.40;;;13.85;56.64
61478;BME280;47345;52.334;10.392;2023-04-24T14:12:58;99636.65;;;13.74;56.95
61478;BME280;47345;52.334;10.392;2023-04-24T14:15:29;99634.77;;;13.64;57.59
61478;BME280;47345;52.334;10.392;2023-04-24T14:18:00;99640.33;;;13.56;58.07
61478;BME280;47345;52.334;10.392;2023-04-24T14:20:34;99644.64;;;13.50;58.27
61478;BME280;47345;52.334;10.392;2023-04-24T14:23:05;99644.69;;;13.42;58.64
61478;BME280;47345;52.334;10.392;2023-04-24T14:25:36;99651.22;;;13.41;59.06
61478;BME280;47345;52.334;10.392;2023-04-24T14:28:08;99649.41;;;13.40;58.30
61478;BME280;47345;52.334;10.392;2023-04-24T14:30:39;99656.31;;;13.30;58.16
61478;BME280;47345;52.334;10.392;2023-04-24T14:33:10;99659.63;;;13.17;58.73
61478;BME280;47345;52.334;10.392;2023-04-24T14:35:41;99671.67;;;13.08;59.53
61478;BME280;47345;52.334;10.392;2023-04-24T14:38:12;99692.45;;;12.95;59.99
61478;BME280;47345;52.334;10.392;2023-04-24T14:40:44;99691.00;;;12.79;61.19
61478;BME280;47345;52.334;10.392;2023-04-24T14:43:18;99694.58;;;12.65;61.00
61478;BME280;47345;52.334;10.392;2023-04-24T14:45:49;99704.34;;;12.53;60.44
61478;BME280;47345;52.334;10.392;2023-04-24T14:48:19;99712.15;;;12.40;61.28
61478;BME280;47345;52.334;10.392;2023-04-24T14:50:50;99716.29;;;12.24;61.66
61478;BME280;47345;52.334;10.392;2023-04-24T14:53:21;99716.23;;;12.06;62.87
61478;BME280;47345;52.334;10.392;2023-04-24T14:55:52;99724.30;;;11.89;64.07
61478;BME280;47345;52.334;10.392;2023-04-24T14:58:24;99728.73;;;11.80;63.78
61478;BME280;47345;52.334;10.392;2023-04-24T15:00:55;99728.48;;;11.77;64.04
61478;BME280;47345;52.334;10.392;2023-04-24T15:03:26;99730.03;;;11.78;64.60
61478;BME280;47345;52.334;10.392;2023-04-24T15:05:57;99737.88;;;11.83;64.89
61478;BME280;47345;52.334;10.392;2023-04-24T15:08:27;99742.59;;;11.88;65.36
61478;BME280;47345;52.334;10.392;2023-04-24T15:10:58;99750.76;;;11.88;65.32
61478;BME280;47345;52.334;10.392;2023-04-24T15:13:28;99756.60;;;11.87;65.46
61478;BME280;47345;52.334;10.392;2023-04-24T15:15:59;99759.19;;;11.78;67.13
61478;BME280;47345;52.334;10.392;2023-04-24T15:18:31;99764.09;;;11.59;68.48
61478;BME280;47345;52.334;10.392;2023-04-24T15:21:01;99774.02;;;11.39;69.80
61478;BME280;47345;52.334;10.392;2023-04-24T15:23:32;99778.89;;;11.19;71.10
61478;BME280;47345;52.334;10.392;2023-04-24T15:26:02;99778.33;;;11.01;72.36
61478;BME280;47345;52.334;10.392;2023-04-24T15:28:33;99778.27;;;10.91;73.47
61478;BME280;47345;52.334;10.392;2023-04-24T15:31:04;99787.59;;;10.80;74.34
61478;BME280;47345;52.334;10.392;2023-04-24T15:33:35;99785.80;;;10.73;75.14
61478;BME280;47345;52.334;10.392;2023-04-24T15:36:06;99783.79;;;10.75;75.89
61478;BME280;47345;52.334;10.392;2023-04-24T15:38:37;99789.74;;;10.85;75.93
61478;BME280;47345;52.334;10.392;2023-04-24T15:41:07;99786.40;;;10.93;75.24
61478;BME280;47345;52.334;10.392;2023-04-24T15:43:38;99786.17;;;10.93;74.17
61478;BME280;47345;52.334;10.392;2023-04-24T15:46:10;99789.86;;;10.92;73.53
61478;BME280;47345;52.334;10.392;2023-04-24T15:48:42;99793.11;;;10.88;74.03
61478;BME280;47345;52.334;10.392;2023-04-24T15:51:13;99800.89;;;10.86;72.84
61478;BME280;47345;52.334;10.392;2023-04-24T15:53:44;99800.05;;;10.80;72.84
61478;BME280;47345;52.334;10.392;2023-04-24T15:56:15;99800.27;;;10.74;72.72
61478;BME280;47345;52.334;10.392;2023-04-24T15:58:46;99804.56;;;10.67;73.17
61478;BME280;47345;52.334;10.392;2023-04-24T16:01:17;99803.68;;;10.63;73.13
61478;BME280;47345;52.334;10.392;2023-04-24T16:03:49;99807.68;;;10.63;73.28
61478;BME280;47345;52.334;10.392;2023-04-24T16:06:19;99812.81;;;10.66;73.58
61478;BME280;47345;52.334;10.392;2023-04-24T16:08:50;99814.69;;;10.69;73.75
61478;BME280;47345;52.334;10.392;2023-04-24T16:11:21;99818.27;;;10.72;74.32
61478;BME280;47345;52.334;10.392;2023-04-24T16:13:51;99814.68;;;10.75;74.57
61478;BME280;47345;52.334;10.392;2023-04-24T16:16:22;99817.42;;;10.77;74.24
61478;BME280;47345;52.334;10.392;2023-04-24T16:18:53;99814.09;;;10.79;73.99
61478;BME280;47345;52.334;10.392;2023-04-24T16:21:24;99818.45;;;10.82;74.28
61478;BME280;47345;52.334;10.392;2023-04-24T16:23:55;99818.88;;;10.85;73.94
61478;BME280;47345;52.334;10.392;2023-04-24T16:26:26;99820.19;;;10.88;73.80
61478;BME280;47345;52.334;10.392;2023-04-24T16:28:57;99822.31;;;10.90;73.07
61478;BME280;47345;52.334;10.392;2023-04-24T16:31:27;99826.17;;;10.87;72.83
61478;BME280;47345;52.334;10.392;2023-04-24T16:33:59;99829.11;;;10.84;72.85
61478;BME280;47345;52.334;10.392;2023-04-24T16:36:30;99828.03;;;10.81;73.08
61478;BME280;47345;52.334;10.392;2023-04-24T16:39:01;99825.60;;;10.76;73.08
61478;BME280;47345;52.334;10.392;2023-04-24T16:41:33;99828.06;;;10.74;72.92
61478;BME280;47345;52.334;10.392;2023-04-24T16:44:04;99831.79;;;10.76;73.09
61478;BME280;47345;52.334;10.392;2023-04-24T16:46:34;99829.89;;;10.81;72.95
61478;BME280;47345;52.334;10.392;2023-04-24T16:49:05;99830.76;;;10.88;72.75
61478;BME280;47345;52.334;10.392;2023-04-24T16:51:35;99826.23;;;10.92;72.54
61478;BME280;47345;52.334;10.392;2023-04-24T16:54:06;99830.30;;;10.96;72.35
61478;BME280;47345;52.334;10.392;2023-04-24T16:56:37;99830.39;;;10.99;72.07
61478;BME280;47345;52.334;10.392;2023-04-24T16:59:07;99831.13;;;11.02;71.64
61478;BME280;47345;52.334;10.392;2023-04-24T17:01:38;99826.86;;;11.04;71.40
61478;BME280;47345;52.334;10.392;2023-04-24T17:04:08;99828.23;;;11.08;71.44
61478;BME280;47345;52.334;10.392;2023-04-24T17:06:39;99831.12;;;11.12;71.54
61478;BME280;47345;52.334;10.392;2023-04-24T17:09:11;99826.99;;;11.14;71.17
61478;BME280;47345;52.334;10.392;2023-04-24T17:11:43;99829.81;;;11.15;70.96
61478;BME280;47345;52.334;10.392;2023-04-24T17:14:24;99830.59;;;11.13;70.81
61478;BME280;47345;52.334;10.392;2023-04-24T17:16:54;99828.77;;;11.13;70.70
61478;BME280;47345;52.334;10.392;2023-04-24T17:19:25;99832.83;;;11.08;70.18
61478;BME280;47345;52.334;10.392;2023-04-24T17:21:56;99833.63;;;11.03;70.38
61478;BME280;47345;52.334;10.392;2023-04-24T17:24:27;99837.73;;;11.01;70.61
61478;BME280;47345;52.334;10.392;2023-04-24T17:26:58;99838.66;;;11.01;70.68
61478;BME280;47345;52.334;10.392;2023-04-24T17:29:40;99840.90;;;11.01;70.51
61478;BME280;47345;52.334;10.392;2023-04-24T17:32:11;99838.98;;;10.99;70.61
61478;BME280;47345;52.334;10.392;2023-04-24T17:34:41;99848.48;;;10.96;70.43
61478;BME280;47345;52.334;10.392;2023-04-24T17:37:12;99847.61;;;10.92;70.57
61478;BME280;47345;52.334;10.392;2023-04-24T17:39:43;99856.38;;;10.92;70.41
61478;BME280;47345;52.334;10.392;2023-04-24T17:42:14;99858.39;;;10.89;69.32
61478;BME280;47345;52.334;10.392;2023-04-24T17:44:45;99863.80;;;10.84;68.67
61478;BME280;47345;52.334;10.392;2023-04-24T17:47:16;99860.78;;;10.80;68.83
61478;BME280;47345;52.334;10.392;2023-04-24T17:49:48;99862.44;;;10.76;68.53
61478;BME280;47345;52.334;10.392;2023-04-24T17:52:20;99865.80;;;10.72;68.14
61478;BME280;47345;52.334;10.392;2023-04-24T17:54:50;99863.52;;;10.67;68.02
61478;BME280;47345;52.334;10.392;2023-04-24T17:57:21;99863.88;;;10.61;68.15
61478;BME280;47345;52.334;10.392;2023-04-24T17:59:53;99863.37;;;10.59;68.57